sensor_id;sensor_type;location;lat;lon;timestamp;P1;durP1;ratioP1;P2;durP2;ratioP2
74808;SDS011;63338;39.544;2.596;2022-12-07T00:01:32;14.77;;;6.57;;
74808;SDS011;63338;39.544;2.596;2022-12-07T00:04:00;10.20;;;2.38;;
74808;SDS011;63338;39.544;2.596;2022-12-07T00:08:58;8.95;;;2.20;;
74808;SDS011;63338;39.544;2.596;2022-12-07T00:11:24;7.57;;;2.10;;
74808;SDS011;63338;39.544;2.596;2022-12-07T00:13:52;11.70;;;2.67;;
74808;SDS011;63338;39.544;2.596;2022-12-07T00:16:20;6.85;;;2.20;;
74808;SDS011;63338;39.544;2.596;2022-12-07T00:18:47;7.00;;;2.10;;
74808;SDS011;63338;39.544;2.596;2022-12-07T00:21:24;9.88;;;2.28;;
74808;SDS011;63338;39.544;2.596;2022-12-07T00:23:55;11.60;;;3.00;;
74808;SDS011;63338;39.544;2.596;2022-12-07T00:26:23;7.18;;;2.13;;
74808;SDS011;63338;39.544;2.596;2022-12-07T00:28:52;9.77;;;2.33;;
74808;SDS011;63338;39.544;2.596;2022-12-07T00:31:23;12.27;;;2.17;;
74808;SDS011;63338;39.544;2.596;2022-12-07T00:33:50;8.48;;;2.10;;
74808;SDS011;63338;39.544;2.596;2022-12-07T00:36:20;6.78;;;2.40;;
74808;SDS011;63338;39.544;2.596;2022-12-07T00:38:49;10.48;;;2.60;;
74808;SDS011;63338;39.544;2.596;2022-12-07T00:41:17;12.25;;;2.20;;
74808;SDS011;63338;39.544;2.596;2022-12-07T00:43:48;10.48;;;2.35;;
74808;SDS011;63338;39.544;2.596;2022-12-07T00:46:15;11.07;;;2.38;;
74808;SDS011;63338;39.544;2.596;2022-12-07T00:48:42;3.83;;;1.80;;
74808;SDS011;63338;39.544;2.596;2022-12-07T00:51:10;9.70;;;2.20;;
74808;SDS011;63338;39.544;2.596;2022-12-07T00:53:38;7.07;;;1.83;;
74808;SDS011;63338;39.544;2.596;2022-12-07T00:56:08;8.27;;;1.85;;
74808;SDS011;63338;39.544;2.596;2022-12-07T00:58:36;8.07;;;1.80;;
74808;SDS011;63338;39.544;2.596;2022-12-07T01:01:06;8.57;;;2.00;;
74808;SDS011;63338;39.544;2.596;2022-12-07T01:03:34;6.97;;;1.95;;
74808;SDS011;63338;39.544;2.596;2022-12-07T01:06:00;6.78;;;1.90;;
74808;SDS011;63338;39.544;2.596;2022-12-07T01:08:27;8.55;;;2.20;;
74808;SDS011;63338;39.544;2.596;2022-12-07T01:10:57;8.68;;;2.28;;
74808;SDS011;63338;39.544;2.596;2022-12-07T01:13:30;8.32;;;1.83;;
74808;SDS011;63338;39.544;2.596;2022-12-07T01:15:57;8.75;;;2.53;;
74808;SDS011;63338;39.544;2.596;2022-12-07T01:18:28;6.97;;;1.77;;
74808;SDS011;63338;39.544;2.596;2022-12-07T01:20:59;9.07;;;2.20;;
74808;SDS011;63338;39.544;2.596;2022-12-07T01:23:28;7.43;;;1.85;;
74808;SDS011;63338;39.544;2.596;2022-12-07T01:25:59;8.43;;;1.70;;
74808;SDS011;63338;39.544;2.596;2022-12-07T01:28:26;9.40;;;2.40;;
74808;SDS011;63338;39.544;2.596;2022-12-07T01:30:57;9.07;;;2.20;;
74808;SDS011;63338;39.544;2.596;2022-12-07T01:38:30;8.02;;;2.15;;
74808;SDS011;63338;39.544;2.596;2022-12-07T01:41:00;9.68;;;2.58;;
74808;SDS011;63338;39.544;2.596;2022-12-07T01:43:30;7.07;;;2.00;;
74808;SDS011;63338;39.544;2.596;2022-12-07T01:46:00;14.10;;;2.13;;
74808;SDS011;63338;39.544;2.596;2022-12-07T01:48:34;8.50;;;1.77;;
74808;SDS011;63338;39.544;2.596;2022-12-07T01:51:08;8.68;;;2.72;;
74808;SDS011;63338;39.544;2.596;2022-12-07T01:53:38;8.73;;;1.80;;
74808;SDS011;63338;39.544;2.596;2022-12-07T01:56:08;7.47;;;1.90;;
74808;SDS011;63338;39.544;2.596;2022-12-07T01:58:40;13.32;;;1.92;;
74808;SDS011;63338;39.544;2.596;2022-12-07T02:01:06;7.82;;;2.05;;
74808;SDS011;63338;39.544;2.596;2022-12-07T02:03:39;8.18;;;1.90;;
74808;SDS011;63338;39.544;2.596;2022-12-07T02:06:07;9.02;;;2.00;;
74808;SDS011;63338;39.544;2.596;2022-12-07T02:08:36;10.93;;;1.92;;
74808;SDS011;63338;39.544;2.596;2022-12-07T02:11:05;5.15;;;1.85;;
74808;SDS011;63338;39.544;2.596;2022-12-07T02:13:36;6.90;;;1.80;;
74808;SDS011;63338;39.544;2.596;2022-12-07T02:18:51;6.95;;;2.08;;
74808;SDS011;63338;39.544;2.596;2022-12-07T02:30:19;4.40;;;1.92;;
74808;SDS011;63338;39.544;2.596;2022-12-07T02:35:51;9.68;;;2.22;;
74808;SDS011;63338;39.544;2.596;2022-12-07T02:38:26;14.25;;;3.60;;
74808;SDS011;63338;39.544;2.596;2022-12-07T02:41:04;7.13;;;2.13;;
74808;SDS011;63338;39.544;2.596;2022-12-07T02:43:36;7.25;;;2.05;;
74808;SDS011;63338;39.544;2.596;2022-12-07T02:46:14;9.20;;;2.20;;
74808;SDS011;63338;39.544;2.596;2022-12-07T02:49:03;7.10;;;1.80;;
74808;SDS011;63338;39.544;2.596;2022-12-07T02:51:40;8.75;;;2.10;;
74808;SDS011;63338;39.544;2.596;2022-12-07T02:54:14;9.50;;;2.45;;
74808;SDS011;63338;39.544;2.596;2022-12-07T03:05:52;8.48;;;2.10;;
74808;SDS011;63338;39.544;2.596;2022-12-07T03:14:02;9.98;;;2.22;;
74808;SDS011;63338;39.544;2.596;2022-12-07T03:16:58;11.07;;;2.20;;
74808;SDS011;63338;39.544;2.596;2022-12-07T03:19:35;8.20;;;2.35;;
74808;SDS011;63338;39.544;2.596;2022-12-07T03:22:03;6.75;;;2.25;;
74808;SDS011;63338;39.544;2.596;2022-12-07T03:24:41;9.80;;;2.20;;
74808;SDS011;63338;39.544;2.596;2022-12-07T03:27:17;6.72;;;1.88;;
74808;SDS011;63338;39.544;2.596;2022-12-07T03:29:49;11.88;;;2.70;;
74808;SDS011;63338;39.544;2.596;2022-12-07T03:32:43;12.75;;;2.50;;
74808;SDS011;63338;39.544;2.596;2022-12-07T03:37:56;6.15;;;2.40;;
74808;SDS011;63338;39.544;2.596;2022-12-07T03:40:30;16.45;;;2.58;;
74808;SDS011;63338;39.544;2.596;2022-12-07T03:43:00;10.73;;;2.67;;
74808;SDS011;63338;39.544;2.596;2022-12-07T03:45:41;8.93;;;2.40;;
74808;SDS011;63338;39.544;2.596;2022-12-07T03:50:45;10.82;;;3.03;;
74808;SDS011;63338;39.544;2.596;2022-12-07T03:53:24;14.18;;;3.78;;
74808;SDS011;63338;39.544;2.596;2022-12-07T03:56:01;9.32;;;3.20;;
74808;SDS011;63338;39.544;2.596;2022-12-07T03:58:28;7.22;;;2.75;;
74808;SDS011;63338;39.544;2.596;2022-12-07T04:01:18;12.85;;;2.35;;
74808;SDS011;63338;39.544;2.596;2022-12-07T04:04:06;6.00;;;2.05;;
74808;SDS011;63338;39.544;2.596;2022-12-07T04:06:50;10.25;;;2.88;;
74808;SDS011;63338;39.544;2.596;2022-12-07T04:09:37;8.27;;;2.35;;
74808;SDS011;63338;39.544;2.596;2022-12-07T04:12:22;11.45;;;2.50;;
74808;SDS011;63338;39.544;2.596;2022-12-07T04:15:08;12.05;;;3.22;;
74808;SDS011;63338;39.544;2.596;2022-12-07T04:17:55;6.30;;;2.10;;
74808;SDS011;63338;39.544;2.596;2022-12-07T04:20:40;10.40;;;2.25;;
74808;SDS011;63338;39.544;2.596;2022-12-07T04:23:24;8.75;;;2.47;;
74808;SDS011;63338;39.544;2.596;2022-12-07T04:26:12;9.40;;;2.95;;
74808;SDS011;63338;39.544;2.596;2022-12-07T04:28:57;5.60;;;1.90;;
74808;SDS011;63338;39.544;2.596;2022-12-07T04:31:42;9.80;;;2.35;;
74808;SDS011;63338;39.544;2.596;2022-12-07T04:34:27;8.35;;;2.60;;
74808;SDS011;63338;39.544;2.596;2022-12-07T04:37:11;11.32;;;2.50;;
74808;SDS011;63338;39.544;2.596;2022-12-07T04:39:56;11.07;;;3.00;;
74808;SDS011;63338;39.544;2.596;2022-12-07T04:42:44;11.48;;;3.13;;
74808;SDS011;63338;39.544;2.596;2022-12-07T04:45:34;9.65;;;3.28;;
74808;SDS011;63338;39.544;2.596;2022-12-07T04:48:21;9.65;;;3.00;;
74808;SDS011;63338;39.544;2.596;2022-12-07T04:51:06;10.90;;;2.40;;
74808;SDS011;63338;39.544;2.596;2022-12-07T04:53:51;10.07;;;2.58;;
74808;SDS011;63338;39.544;2.596;2022-12-07T04:56:36;8.65;;;3.30;;
74808;SDS011;63338;39.544;2.596;2022-12-07T04:59:21;8.70;;;2.25;;
74808;SDS011;63338;39.544;2.596;2022-12-07T05:02:06;11.32;;;2.33;;
74808;SDS011;63338;39.544;2.596;2022-12-07T05:04:51;9.38;;;2.95;;
74808;SDS011;63338;39.544;2.596;2022-12-07T05:07:38;9.93;;;3.28;;
74808;SDS011;63338;39.544;2.596;2022-12-07T05:10:23;7.05;;;2.55;;
74808;SDS011;63338;39.544;2.596;2022-12-07T05:13:10;9.15;;;2.58;;
74808;SDS011;63338;39.544;2.596;2022-12-07T05:16:03;6.38;;;2.13;;
74808;SDS011;63338;39.544;2.596;2022-12-07T05:18:51;9.68;;;3.70;;
74808;SDS011;63338;39.544;2.596;2022-12-07T05:21:36;9.23;;;2.90;;
74808;SDS011;63338;39.544;2.596;2022-12-07T05:24:22;10.38;;;3.03;;
74808;SDS011;63338;39.544;2.596;2022-12-07T05:27:07;12.65;;;3.15;;
74808;SDS011;63338;39.544;2.596;2022-12-07T05:29:54;9.35;;;2.35;;
74808;SDS011;63338;39.544;2.596;2022-12-07T05:32:39;6.43;;;2.20;;
74808;SDS011;63338;39.544;2.596;2022-12-07T05:35:24;8.40;;;2.33;;
74808;SDS011;63338;39.544;2.596;2022-12-07T05:38:08;9.77;;;2.10;;
74808;SDS011;63338;39.544;2.596;2022-12-07T05:40:59;7.97;;;2.40;;
74808;SDS011;63338;39.544;2.596;2022-12-07T05:43:45;6.97;;;2.15;;
74808;SDS011;63338;39.544;2.596;2022-12-07T05:46:30;8.55;;;2.08;;
74808;SDS011;63338;39.544;2.596;2022-12-07T05:49:15;9.18;;;2.20;;
74808;SDS011;63338;39.544;2.596;2022-12-07T05:52:00;7.72;;;2.25;;
74808;SDS011;63338;39.544;2.596;2022-12-07T05:54:45;12.88;;;3.30;;
74808;SDS011;63338;39.544;2.596;2022-12-07T05:57:30;10.35;;;2.42;;
74808;SDS011;63338;39.544;2.596;2022-12-07T06:00:15;19.67;;;3.90;;
74808;SDS011;63338;39.544;2.596;2022-12-07T06:03:00;10.07;;;2.72;;
74808;SDS011;63338;39.544;2.596;2022-12-07T06:05:54;9.90;;;2.63;;
74808;SDS011;63338;39.544;2.596;2022-12-07T06:08:41;8.48;;;2.45;;
74808;SDS011;63338;39.544;2.596;2022-12-07T06:11:26;8.50;;;2.78;;
74808;SDS011;63338;39.544;2.596;2022-12-07T06:14:29;12.65;;;2.35;;
74808;SDS011;63338;39.544;2.596;2022-12-07T06:17:05;12.25;;;2.70;;
74808;SDS011;63338;39.544;2.596;2022-12-07T06:19:31;14.95;;;3.05;;
74808;SDS011;63338;39.544;2.596;2022-12-07T06:21:58;8.43;;;2.45;;
74808;SDS011;63338;39.544;2.596;2022-12-07T06:24:24;13.43;;;2.70;;
74808;SDS011;63338;39.544;2.596;2022-12-07T06:26:50;10.98;;;2.60;;
74808;SDS011;63338;39.544;2.596;2022-12-07T06:29:17;13.40;;;3.00;;
74808;SDS011;63338;39.544;2.596;2022-12-07T06:31:43;10.10;;;2.20;;
74808;SDS011;63338;39.544;2.596;2022-12-07T06:34:11;7.43;;;2.67;;
74808;SDS011;63338;39.544;2.596;2022-12-07T06:36:38;6.97;;;2.70;;
74808;SDS011;63338;39.544;2.596;2022-12-07T06:39:07;9.15;;;2.72;;
74808;SDS011;63338;39.544;2.596;2022-12-07T06:41:36;6.60;;;2.40;;
74808;SDS011;63338;39.544;2.596;2022-12-07T06:44:06;8.85;;;2.60;;
74808;SDS011;63338;39.544;2.596;2022-12-07T06:46:38;7.80;;;2.45;;
74808;SDS011;63338;39.544;2.596;2022-12-07T06:49:07;8.13;;;2.42;;
74808;SDS011;63338;39.544;2.596;2022-12-07T06:51:39;11.50;;;2.80;;
74808;SDS011;63338;39.544;2.596;2022-12-07T06:54:11;10.40;;;3.20;;
74808;SDS011;63338;39.544;2.596;2022-12-07T06:56:42;12.88;;;2.88;;
74808;SDS011;63338;39.544;2.596;2022-12-07T06:59:08;13.73;;;4.25;;
74808;SDS011;63338;39.544;2.596;2022-12-07T07:01:36;10.20;;;3.28;;
74808;SDS011;63338;39.544;2.596;2022-12-07T07:04:05;8.73;;;3.00;;
74808;SDS011;63338;39.544;2.596;2022-12-07T07:06:32;10.05;;;2.95;;
74808;SDS011;63338;39.544;2.596;2022-12-07T07:09:02;23.15;;;3.33;;
74808;SDS011;63338;39.544;2.596;2022-12-07T07:11:31;17.48;;;3.50;;
74808;SDS011;63338;39.544;2.596;2022-12-07T07:13:57;17.85;;;4.65;;
74808;SDS011;63338;39.544;2.596;2022-12-07T07:16:28;15.40;;;3.35;;
74808;SDS011;63338;39.544;2.596;2022-12-07T07:18:59;12.32;;;3.75;;
74808;SDS011;63338;39.544;2.596;2022-12-07T07:21:25;11.55;;;3.30;;
74808;SDS011;63338;39.544;2.596;2022-12-07T07:23:51;13.85;;;3.70;;
74808;SDS011;63338;39.544;2.596;2022-12-07T07:26:24;12.05;;;3.40;;
74808;SDS011;63338;39.544;2.596;2022-12-07T07:28:54;10.90;;;3.20;;
74808;SDS011;63338;39.544;2.596;2022-12-07T07:31:20;13.02;;;3.17;;
74808;SDS011;63338;39.544;2.596;2022-12-07T07:33:46;14.00;;;3.85;;
74808;SDS011;63338;39.544;2.596;2022-12-07T07:36:12;17.92;;;3.78;;
74808;SDS011;63338;39.544;2.596;2022-12-07T07:38:41;20.75;;;3.95;;
74808;SDS011;63338;39.544;2.596;2022-12-07T07:41:07;12.43;;;3.75;;
74808;SDS011;63338;39.544;2.596;2022-12-07T07:43:34;11.68;;;4.10;;
74808;SDS011;63338;39.544;2.596;2022-12-07T07:46:00;13.57;;;3.97;;
74808;SDS011;63338;39.544;2.596;2022-12-07T07:48:26;9.88;;;3.22;;
74808;SDS011;63338;39.544;2.596;2022-12-07T07:50:52;12.00;;;3.45;;
74808;SDS011;63338;39.544;2.596;2022-12-07T07:53:21;16.30;;;4.18;;
74808;SDS011;63338;39.544;2.596;2022-12-07T07:55:51;12.60;;;3.45;;
74808;SDS011;63338;39.544;2.596;2022-12-07T07:58:19;7.07;;;3.10;;
74808;SDS011;63338;39.544;2.596;2022-12-07T08:00:46;13.73;;;3.67;;
74808;SDS011;63338;39.544;2.596;2022-12-07T08:03:12;11.20;;;3.20;;
74808;SDS011;63338;39.544;2.596;2022-12-07T08:05:38;15.70;;;3.42;;
74808;SDS011;63338;39.544;2.596;2022-12-07T08:08:04;13.93;;;3.42;;
74808;SDS011;63338;39.544;2.596;2022-12-07T08:10:36;10.60;;;2.67;;
74808;SDS011;63338;39.544;2.596;2022-12-07T08:13:03;9.73;;;3.08;;
74808;SDS011;63338;39.544;2.596;2022-12-07T08:15:44;19.73;;;4.35;;
74808;SDS011;63338;39.544;2.596;2022-12-07T08:18:12;13.30;;;4.38;;
74808;SDS011;63338;39.544;2.596;2022-12-07T08:20:39;13.18;;;3.45;;
74808;SDS011;63338;39.544;2.596;2022-12-07T08:23:08;12.50;;;4.22;;
74808;SDS011;63338;39.544;2.596;2022-12-07T08:25:35;15.23;;;4.50;;
74808;SDS011;63338;39.544;2.596;2022-12-07T08:28:04;9.40;;;3.58;;
74808;SDS011;63338;39.544;2.596;2022-12-07T08:30:31;12.27;;;3.67;;
74808;SDS011;63338;39.544;2.596;2022-12-07T08:32:57;8.20;;;3.22;;
74808;SDS011;63338;39.544;2.596;2022-12-07T08:35:24;16.08;;;2.65;;
74808;SDS011;63338;39.544;2.596;2022-12-07T08:37:51;8.50;;;2.63;;
74808;SDS011;63338;39.544;2.596;2022-12-07T08:40:17;9.00;;;2.50;;
74808;SDS011;63338;39.544;2.596;2022-12-07T08:42:50;13.05;;;2.58;;
74808;SDS011;63338;39.544;2.596;2022-12-07T08:45:17;7.43;;;1.90;;
74808;SDS011;63338;39.544;2.596;2022-12-07T08:48:18;16.45;;;2.50;;
74808;SDS011;63338;39.544;2.596;2022-12-07T08:50:40;14.98;;;2.65;;
74808;SDS011;63338;39.544;2.596;2022-12-07T08:57:02;19.77;;;3.58;;
74808;SDS011;63338;39.544;2.596;2022-12-07T08:59:29;7.25;;;2.20;;
74808;SDS011;63338;39.544;2.596;2022-12-07T09:01:56;7.22;;;1.95;;
74808;SDS011;63338;39.544;2.596;2022-12-07T09:04:25;7.43;;;1.70;;
74808;SDS011;63338;39.544;2.596;2022-12-07T09:06:51;12.70;;;2.00;;
74808;SDS011;63338;39.544;2.596;2022-12-07T09:09:18;7.90;;;1.70;;
74808;SDS011;63338;39.544;2.596;2022-12-07T09:11:45;11.55;;;2.03;;
74808;SDS011;63338;39.544;2.596;2022-12-07T09:14:11;7.53;;;1.70;;
74808;SDS011;63338;39.544;2.596;2022-12-07T09:16:41;6.90;;;1.67;;
74808;SDS011;63338;39.544;2.596;2022-12-07T09:19:07;9.90;;;1.60;;
74808;SDS011;63338;39.544;2.596;2022-12-07T09:21:42;11.77;;;1.70;;
74808;SDS011;63338;39.544;2.596;2022-12-07T09:24:16;7.63;;;1.90;;
74808;SDS011;63338;39.544;2.596;2022-12-07T09:26:53;11.55;;;2.25;;
74808;SDS011;63338;39.544;2.596;2022-12-07T09:29:20;9.45;;;1.92;;
74808;SDS011;63338;39.544;2.596;2022-12-07T09:31:47;6.85;;;1.70;;
74808;SDS011;63338;39.544;2.596;2022-12-07T09:34:22;8.25;;;1.55;;
74808;SDS011;63338;39.544;2.596;2022-12-07T09:37:02;8.98;;;1.45;;
74808;SDS011;63338;39.544;2.596;2022-12-07T09:39:37;6.13;;;1.80;;
74808;SDS011;63338;39.544;2.596;2022-12-07T09:42:06;5.75;;;1.50;;
74808;SDS011;63338;39.544;2.596;2022-12-07T09:44:36;10.60;;;1.85;;
74808;SDS011;63338;39.544;2.596;2022-12-07T09:47:09;9.80;;;2.40;;
74808;SDS011;63338;39.544;2.596;2022-12-07T09:49:39;4.75;;;1.77;;
74808;SDS011;63338;39.544;2.596;2022-12-07T09:55:12;12.05;;;2.00;;
74808;SDS011;63338;39.544;2.596;2022-12-07T09:57:51;5.88;;;1.70;;
74808;SDS011;63338;39.544;2.596;2022-12-07T10:00:19;3.80;;;1.52;;
74808;SDS011;63338;39.544;2.596;2022-12-07T10:02:59;6.85;;;1.98;;
74808;SDS011;63338;39.544;2.596;2022-12-07T10:05:36;6.15;;;1.60;;
74808;SDS011;63338;39.544;2.596;2022-12-07T10:08:25;8.02;;;1.73;;
74808;SDS011;63338;39.544;2.596;2022-12-07T10:10:53;8.05;;;1.60;;
74808;SDS011;63338;39.544;2.596;2022-12-07T10:19:16;9.43;;;2.20;;
74808;SDS011;63338;39.544;2.596;2022-12-07T10:24:42;9.05;;;2.03;;
74808;SDS011;63338;39.544;2.596;2022-12-07T10:27:25;8.77;;;2.20;;
74808;SDS011;63338;39.544;2.596;2022-12-07T10:30:12;7.85;;;1.77;;
74808;SDS011;63338;39.544;2.596;2022-12-07T10:32:40;7.68;;;2.75;;
74808;SDS011;63338;39.544;2.596;2022-12-07T10:37:48;6.88;;;2.05;;
74808;SDS011;63338;39.544;2.596;2022-12-07T10:43:02;8.23;;;2.53;;
74808;SDS011;63338;39.544;2.596;2022-12-07T10:48:39;7.28;;;1.85;;
74808;SDS011;63338;39.544;2.596;2022-12-07T10:54:10;5.78;;;2.00;;
74808;SDS011;63338;39.544;2.596;2022-12-07T10:56:53;10.40;;;2.28;;
74808;SDS011;63338;39.544;2.596;2022-12-07T11:00:29;5.68;;;1.95;;
74808;SDS011;63338;39.544;2.596;2022-12-07T11:03:22;8.27;;;2.05;;
74808;SDS011;63338;39.544;2.596;2022-12-07T11:18:14;7.47;;;2.17;;
74808;SDS011;63338;39.544;2.596;2022-12-07T11:23:53;8.43;;;2.03;;
74808;SDS011;63338;39.544;2.596;2022-12-07T11:33:09;12.07;;;1.90;;
74808;SDS011;63338;39.544;2.596;2022-12-07T11:38:26;6.70;;;2.10;;
74808;SDS011;63338;39.544;2.596;2022-12-07T11:41:04;7.03;;;1.70;;
74808;SDS011;63338;39.544;2.596;2022-12-07T11:43:41;9.07;;;1.80;;
74808;SDS011;63338;39.544;2.596;2022-12-07T11:46:25;5.40;;;1.85;;
74808;SDS011;63338;39.544;2.596;2022-12-07T11:49:58;7.85;;;1.70;;
74808;SDS011;63338;39.544;2.596;2022-12-07T11:52:45;5.93;;;1.60;;
74808;SDS011;63338;39.544;2.596;2022-12-07T11:55:29;9.05;;;2.22;;
74808;SDS011;63338;39.544;2.596;2022-12-07T12:05:05;7.43;;;2.10;;
74808;SDS011;63338;39.544;2.596;2022-12-07T12:07:56;9.80;;;1.95;;
74808;SDS011;63338;39.544;2.596;2022-12-07T12:20:47;8.38;;;2.10;;
74808;SDS011;63338;39.544;2.596;2022-12-07T12:29:23;7.25;;;2.00;;
74808;SDS011;63338;39.544;2.596;2022-12-07T12:37:45;9.45;;;2.35;;
74808;SDS011;63338;39.544;2.596;2022-12-07T12:42:49;8.60;;;2.40;;
74808;SDS011;63338;39.544;2.596;2022-12-07T12:45:18;14.77;;;3.10;;
74808;SDS011;63338;39.544;2.596;2022-12-07T12:47:59;11.60;;;2.63;;
74808;SDS011;63338;39.544;2.596;2022-12-07T12:50:47;7.70;;;1.95;;
74808;SDS011;63338;39.544;2.596;2022-12-07T12:53:21;8.65;;;2.10;;
74808;SDS011;63338;39.544;2.596;2022-12-07T12:59:26;12.00;;;1.92;;
74808;SDS011;63338;39.544;2.596;2022-12-07T13:10:41;11.68;;;2.17;;
74808;SDS011;63338;39.544;2.596;2022-12-07T13:15:41;12.48;;;2.72;;
74808;SDS011;63338;39.544;2.596;2022-12-07T13:23:38;6.13;;;1.63;;
74808;SDS011;63338;39.544;2.596;2022-12-07T13:28:43;10.57;;;2.40;;
74808;SDS011;63338;39.544;2.596;2022-12-07T13:31:13;11.93;;;2.30;;
74808;SDS011;63338;39.544;2.596;2022-12-07T13:33:44;14.07;;;2.33;;
74808;SDS011;63338;39.544;2.596;2022-12-07T13:36:29;9.32;;;3.08;;
74808;SDS011;63338;39.544;2.596;2022-12-07T13:39:16;10.93;;;2.22;;
74808;SDS011;63338;39.544;2.596;2022-12-07T13:41:45;17.05;;;2.80;;
74808;SDS011;63338;39.544;2.596;2022-12-07T13:44:26;14.45;;;2.80;;
74808;SDS011;63338;39.544;2.596;2022-12-07T13:47:06;7.70;;;1.70;;
74808;SDS011;63338;39.544;2.596;2022-12-07T13:49:44;14.88;;;1.92;;
74808;SDS011;63338;39.544;2.596;2022-12-07T13:54:43;6.03;;;1.50;;
74808;SDS011;63338;39.544;2.596;2022-12-07T13:57:21;7.65;;;1.50;;
74808;SDS011;63338;39.544;2.596;2022-12-07T13:59:49;11.43;;;2.28;;
74808;SDS011;63338;39.544;2.596;2022-12-07T14:02:20;13.73;;;2.00;;
74808;SDS011;63338;39.544;2.596;2022-12-07T14:04:50;11.18;;;2.50;;
74808;SDS011;63338;39.544;2.596;2022-12-07T14:07:26;9.85;;;2.50;;
74808;SDS011;63338;39.544;2.596;2022-12-07T14:10:01;14.15;;;2.40;;
74808;SDS011;63338;39.544;2.596;2022-12-07T14:12:34;13.68;;;1.83;;
74808;SDS011;63338;39.544;2.596;2022-12-07T14:15:32;18.38;;;2.08;;
74808;SDS011;63338;39.544;2.596;2022-12-07T14:18:02;11.07;;;2.38;;
74808;SDS011;63338;39.544;2.596;2022-12-07T14:20:31;15.13;;;2.10;;
74808;SDS011;63338;39.544;2.596;2022-12-07T14:22:58;15.80;;;2.08;;
74808;SDS011;63338;39.544;2.596;2022-12-07T14:25:24;8.48;;;1.90;;
74808;SDS011;63338;39.544;2.596;2022-12-07T14:27:56;11.13;;;1.73;;
74808;SDS011;63338;39.544;2.596;2022-12-07T14:30:25;16.30;;;2.58;;
74808;SDS011;63338;39.544;2.596;2022-12-07T14:32:54;11.25;;;2.05;;
74808;SDS011;63338;39.544;2.596;2022-12-07T14:35:35;8.75;;;2.13;;
74808;SDS011;63338;39.544;2.596;2022-12-07T14:38:05;14.93;;;2.65;;
74808;SDS011;63338;39.544;2.596;2022-12-07T14:40:33;13.82;;;2.15;;
74808;SDS011;63338;39.544;2.596;2022-12-07T14:43:09;6.72;;;1.77;;
74808;SDS011;63338;39.544;2.596;2022-12-07T14:45:38;10.98;;;2.10;;
74808;SDS011;63338;39.544;2.596;2022-12-07T14:48:05;11.57;;;2.08;;
74808;SDS011;63338;39.544;2.596;2022-12-07T14:50:36;12.00;;;1.90;;
74808;SDS011;63338;39.544;2.596;2022-12-07T14:53:24;7.53;;;1.90;;
74808;SDS011;63338;39.544;2.596;2022-12-07T14:56:13;10.43;;;2.28;;
74808;SDS011;63338;39.544;2.596;2022-12-07T14:58:42;7.80;;;2.50;;
74808;SDS011;63338;39.544;2.596;2022-12-07T15:01:10;15.95;;;2.58;;
74808;SDS011;63338;39.544;2.596;2022-12-07T15:03:37;8.25;;;2.10;;
74808;SDS011;63338;39.544;2.596;2022-12-07T15:06:10;8.13;;;2.15;;
74808;SDS011;63338;39.544;2.596;2022-12-07T15:08:48;9.85;;;2.28;;
74808;SDS011;63338;39.544;2.596;2022-12-07T15:11:21;9.63;;;2.25;;
74808;SDS011;63338;39.544;2.596;2022-12-07T15:13:54;8.27;;;2.42;;
74808;SDS011;63338;39.544;2.596;2022-12-07T15:16:38;10.85;;;2.38;;
74808;SDS011;63338;39.544;2.596;2022-12-07T15:19:09;7.50;;;2.67;;
74808;SDS011;63338;39.544;2.596;2022-12-07T15:21:46;12.77;;;3.78;;
74808;SDS011;63338;39.544;2.596;2022-12-07T15:24:12;8.90;;;2.70;;
74808;SDS011;63338;39.544;2.596;2022-12-07T15:26:54;11.82;;;2.72;;
74808;SDS011;63338;39.544;2.596;2022-12-07T15:29:21;16.55;;;3.20;;
74808;SDS011;63338;39.544;2.596;2022-12-07T15:32:02;10.93;;;2.95;;
74808;SDS011;63338;39.544;2.596;2022-12-07T15:34:48;10.40;;;3.22;;
74808;SDS011;63338;39.544;2.596;2022-12-07T15:37:16;11.68;;;2.78;;
74808;SDS011;63338;39.544;2.596;2022-12-07T15:39:56;9.18;;;3.05;;
74808;SDS011;63338;39.544;2.596;2022-12-07T15:42:48;19.58;;;3.95;;
74808;SDS011;63338;39.544;2.596;2022-12-07T15:45:27;12.48;;;4.20;;
74808;SDS011;63338;39.544;2.596;2022-12-07T15:47:56;14.88;;;4.78;;
74808;SDS011;63338;39.544;2.596;2022-12-07T15:50:22;15.15;;;3.50;;
74808;SDS011;63338;39.544;2.596;2022-12-07T15:52:53;13.65;;;3.10;;
74808;SDS011;63338;39.544;2.596;2022-12-07T15:55:23;12.00;;;3.42;;
74808;SDS011;63338;39.544;2.596;2022-12-07T15:57:49;9.23;;;2.85;;
74808;SDS011;63338;39.544;2.596;2022-12-07T16:00:28;8.32;;;2.45;;
74808;SDS011;63338;39.544;2.596;2022-12-07T16:02:54;10.88;;;2.88;;
74808;SDS011;63338;39.544;2.596;2022-12-07T16:05:23;13.63;;;3.10;;
74808;SDS011;63338;39.544;2.596;2022-12-07T16:07:49;13.52;;;3.25;;
74808;SDS011;63338;39.544;2.596;2022-12-07T16:10:25;6.97;;;2.97;;
74808;SDS011;63338;39.544;2.596;2022-12-07T16:12:57;8.68;;;3.17;;
74808;SDS011;63338;39.544;2.596;2022-12-07T16:15:23;12.68;;;3.80;;
74808;SDS011;63338;39.544;2.596;2022-12-07T16:18:09;10.32;;;3.90;;
74808;SDS011;63338;39.544;2.596;2022-12-07T16:20:56;7.97;;;3.30;;
74808;SDS011;63338;39.544;2.596;2022-12-07T16:23:41;6.50;;;2.63;;
74808;SDS011;63338;39.544;2.596;2022-12-07T16:26:26;13.65;;;3.00;;
74808;SDS011;63338;39.544;2.596;2022-12-07T16:29:11;9.32;;;3.30;;
74808;SDS011;63338;39.544;2.596;2022-12-07T16:31:59;8.38;;;2.50;;
74808;SDS011;63338;39.544;2.596;2022-12-07T16:34:47;9.75;;;2.72;;
74808;SDS011;63338;39.544;2.596;2022-12-07T16:37:32;7.00;;;2.58;;
74808;SDS011;63338;39.544;2.596;2022-12-07T16:40:25;7.90;;;2.58;;
74808;SDS011;63338;39.544;2.596;2022-12-07T16:43:13;7.65;;;2.97;;
74808;SDS011;63338;39.544;2.596;2022-12-07T16:45:58;13.43;;;3.05;;
74808;SDS011;63338;39.544;2.596;2022-12-07T16:48:43;13.35;;;3.17;;
74808;SDS011;63338;39.544;2.596;2022-12-07T16:51:35;11.38;;;3.28;;
74808;SDS011;63338;39.544;2.596;2022-12-07T16:54:37;8.95;;;3.28;;
74808;SDS011;63338;39.544;2.596;2022-12-07T16:57:24;10.63;;;2.90;;
74808;SDS011;63338;39.544;2.596;2022-12-07T17:00:14;13.27;;;3.33;;
74808;SDS011;63338;39.544;2.596;2022-12-07T17:02:59;8.90;;;2.47;;
74808;SDS011;63338;39.544;2.596;2022-12-07T17:05:45;15.00;;;3.88;;
74808;SDS011;63338;39.544;2.596;2022-12-07T17:08:36;5.82;;;2.58;;
74808;SDS011;63338;39.544;2.596;2022-12-07T17:11:35;6.60;;;2.75;;
74808;SDS011;63338;39.544;2.596;2022-12-07T17:14:36;13.68;;;2.58;;
74808;SDS011;63338;39.544;2.596;2022-12-07T17:17:55;12.93;;;2.58;;
74808;SDS011;63338;39.544;2.596;2022-12-07T17:21:24;10.13;;;3.08;;
74808;SDS011;63338;39.544;2.596;2022-12-07T17:30:55;8.90;;;3.15;;
74808;SDS011;63338;39.544;2.596;2022-12-07T17:33:37;8.10;;;3.00;;
74808;SDS011;63338;39.544;2.596;2022-12-07T17:36:15;7.15;;;2.85;;
74808;SDS011;63338;39.544;2.596;2022-12-07T17:42:44;7.13;;;3.10;;
74808;SDS011;63338;39.544;2.596;2022-12-07T17:45:27;11.10;;;2.75;;
74808;SDS011;63338;39.544;2.596;2022-12-07T17:48:08;9.82;;;2.72;;
74808;SDS011;63338;39.544;2.596;2022-12-07T17:50:52;10.07;;;3.10;;
74808;SDS011;63338;39.544;2.596;2022-12-07T17:54:14;13.15;;;3.10;;
74808;SDS011;63338;39.544;2.596;2022-12-07T17:57:27;14.10;;;2.55;;
74808;SDS011;63338;39.544;2.596;2022-12-07T18:03:52;11.10;;;2.80;;
74808;SDS011;63338;39.544;2.596;2022-12-07T18:06:37;8.25;;;2.50;;
74808;SDS011;63338;39.544;2.596;2022-12-07T18:09:06;7.88;;;2.75;;
74808;SDS011;63338;39.544;2.596;2022-12-07T18:12:00;11.48;;;2.80;;
74808;SDS011;63338;39.544;2.596;2022-12-07T18:14:48;13.60;;;3.28;;
74808;SDS011;63338;39.544;2.596;2022-12-07T18:17:16;11.40;;;3.70;;
74808;SDS011;63338;39.544;2.596;2022-12-07T18:19:43;10.95;;;4.15;;